sensor_id;sensor_type;location;lat;lon;timestamp;P1;durP1;ratioP1;P2;durP2;ratioP2
67979;SDS011;54760;47.490;19.030;2024-02-23T00:00:10;2.85;;;1.83;;
67979;SDS011;54760;47.490;19.030;2024-02-23T00:02:38;2.67;;;2.10;;
67979;SDS011;54760;47.490;19.030;2024-02-23T00:05:04;2.62;;;2.10;;
67979;SDS011;54760;47.490;19.030;2024-02-23T00:07:29;3.72;;;1.75;;
67979;SDS011;54760;47.490;19.030;2024-02-23T00:09:55;3.12;;;1.90;;
67979;SDS011;54760;47.490;19.030;2024-02-23T00:12:20;3.25;;;1.92;;
67979;SDS011;54760;47.490;19.030;2024-02-23T00:14:46;4.50;;;1.80;;
67979;SDS011;54760;47.490;19.030;2024-02-23T00:17:11;3.40;;;1.80;;
67979;SDS011;54760;47.490;19.030;2024-02-23T00:19:37;2.67;;;1.55;;
67979;SDS011;54760;47.490;19.030;2024-02-23T00:22:02;2.65;;;1.90;;
67979;SDS011;54760;47.490;19.030;2024-02-23T00:24:29;2.95;;;2.15;;
67979;SDS011;54760;47.490;19.030;2024-02-23T00:26:54;3.87;;;2.20;;
67979;SDS011;54760;47.490;19.030;2024-02-23T00:29:20;3.03;;;2.03;;
67979;SDS011;54760;47.490;19.030;2024-02-23T00:31:46;3.03;;;1.92;;
67979;SDS011;54760;47.490;19.030;2024-02-23T00:34:12;3.33;;;2.08;;
67979;SDS011;54760;47.490;19.030;2024-02-23T00:36:41;4.68;;;2.00;;
67979;SDS011;54760;47.490;19.030;2024-02-23T00:39:09;4.37;;;2.55;;
67979;SDS011;54760;47.490;19.030;2024-02-23T00:41:35;3.00;;;2.10;;
67979;SDS011;54760;47.490;19.030;2024-02-23T00:44:01;7.05;;;2.45;;
67979;SDS011;54760;47.490;19.030;2024-02-23T00:46:29;2.87;;;1.95;;
67979;SDS011;54760;47.490;19.030;2024-02-23T00:48:55;3.20;;;2.05;;
67979;SDS011;54760;47.490;19.030;2024-02-23T00:51:20;3.22;;;2.17;;
67979;SDS011;54760;47.490;19.030;2024-02-23T00:53:46;3.40;;;2.05;;
67979;SDS011;54760;47.490;19.030;2024-02-23T00:56:12;4.57;;;2.30;;
67979;SDS011;54760;47.490;19.030;2024-02-23T00:58:38;3.55;;;2.10;;
67979;SDS011;54760;47.490;19.030;2024-02-23T01:01:03;3.25;;;1.80;;
67979;SDS011;54760;47.490;19.030;2024-02-23T01:03:29;4.15;;;2.12;;
67979;SDS011;54760;47.490;19.030;2024-02-23T01:05:54;4.10;;;2.05;;
67979;SDS011;54760;47.490;19.030;2024-02-23T01:08:20;2.00;;;1.80;;
67979;SDS011;54760;47.490;19.030;2024-02-23T01:10:45;4.30;;;2.33;;
67979;SDS011;54760;47.490;19.030;2024-02-23T01:13:11;2.70;;;2.00;;
67979;SDS011;54760;47.490;19.030;2024-02-23T01:15:36;3.00;;;2.17;;
67979;SDS011;54760;47.490;19.030;2024-02-23T01:18:03;3.53;;;2.28;;
67979;SDS011;54760;47.490;19.030;2024-02-23T01:20:31;2.80;;;1.98;;
67979;SDS011;54760;47.490;19.030;2024-02-23T01:22:56;3.62;;;2.42;;
67979;SDS011;54760;47.490;19.030;2024-02-23T01:25:21;6.28;;;2.47;;
67979;SDS011;54760;47.490;19.030;2024-02-23T01:27:47;6.95;;;2.40;;
67979;SDS011;54760;47.490;19.030;2024-02-23T01:30:13;4.22;;;3.08;;
67979;SDS011;54760;47.490;19.030;2024-02-23T01:32:38;2.60;;;1.92;;
67979;SDS011;54760;47.490;19.030;2024-02-23T01:35:07;2.95;;;2.03;;
67979;SDS011;54760;47.490;19.030;2024-02-23T01:37:33;3.47;;;2.20;;
67979;SDS011;54760;47.490;19.030;2024-02-23T01:39:59;4.45;;;2.60;;
67979;SDS011;54760;47.490;19.030;2024-02-23T01:42:25;6.40;;;2.53;;
67979;SDS011;54760;47.490;19.030;2024-02-23T01:44:53;3.50;;;2.17;;
67979;SDS011;54760;47.490;19.030;2024-02-23T01:47:21;4.78;;;2.37;;
67979;SDS011;54760;47.490;19.030;2024-02-23T01:49:48;3.17;;;2.30;;
67979;SDS011;54760;47.490;19.030;2024-02-23T01:52:13;4.50;;;2.33;;
67979;SDS011;54760;47.490;19.030;2024-02-23T01:54:40;2.40;;;2.05;;
67979;SDS011;54760;47.490;19.030;2024-02-23T01:57:06;3.60;;;2.40;;
67979;SDS011;54760;47.490;19.030;2024-02-23T01:59:33;3.22;;;2.30;;
67979;SDS011;54760;47.490;19.030;2024-02-23T02:02:02;4.53;;;2.47;;
67979;SDS011;54760;47.490;19.030;2024-02-23T02:04:28;2.90;;;2.40;;
67979;SDS011;54760;47.490;19.030;2024-02-23T02:06:53;3.58;;;2.50;;
67979;SDS011;54760;47.490;19.030;2024-02-23T02:09:19;3.72;;;2.62;;
67979;SDS011;54760;47.490;19.030;2024-02-23T02:11:47;5.47;;;2.67;;
67979;SDS011;54760;47.490;19.030;2024-02-23T02:14:14;3.65;;;2.55;;
67979;SDS011;54760;47.490;19.030;2024-02-23T02:16:39;3.60;;;2.70;;
67979;SDS011;54760;47.490;19.030;2024-02-23T02:19:05;3.53;;;2.15;;
67979;SDS011;54760;47.490;19.030;2024-02-23T02:21:34;4.18;;;2.70;;
67979;SDS011;54760;47.490;19.030;2024-02-23T02:24:00;4.65;;;2.45;;
67979;SDS011;54760;47.490;19.030;2024-02-23T02:26:25;4.18;;;2.20;;
67979;SDS011;54760;47.490;19.030;2024-02-23T02:28:50;3.17;;;2.20;;
67979;SDS011;54760;47.490;19.030;2024-02-23T02:31:17;4.15;;;2.42;;
67979;SDS011;54760;47.490;19.030;2024-02-23T02:33:43;4.22;;;2.30;;
67979;SDS011;54760;47.490;19.030;2024-02-23T02:36:09;5.03;;;1.92;;
67979;SDS011;54760;47.490;19.030;2024-02-23T02:38:34;5.70;;;2.85;;
67979;SDS011;54760;47.490;19.030;2024-02-23T02:41:00;3.50;;;2.37;;
67979;SDS011;54760;47.490;19.030;2024-02-23T02:43:25;4.72;;;2.75;;
67979;SDS011;54760;47.490;19.030;2024-02-23T02:45:51;3.33;;;2.28;;
67979;SDS011;54760;47.490;19.030;2024-02-23T02:48:17;4.60;;;2.97;;
67979;SDS011;54760;47.490;19.030;2024-02-23T02:50:42;3.65;;;2.33;;
67979;SDS011;54760;47.490;19.030;2024-02-23T02:53:08;3.08;;;2.30;;
67979;SDS011;54760;47.490;19.030;2024-02-23T02:55:33;4.53;;;2.50;;
67979;SDS011;54760;47.490;19.030;2024-02-23T02:57:58;3.92;;;2.47;;
67979;SDS011;54760;47.490;19.030;2024-02-23T03:00:24;3.55;;;2.30;;
67979;SDS011;54760;47.490;19.030;2024-02-23T03:02:49;3.53;;;2.45;;
67979;SDS011;54760;47.490;19.030;2024-02-23T03:05:15;4.50;;;2.58;;
67979;SDS011;54760;47.490;19.030;2024-02-23T03:07:40;3.85;;;2.40;;
67979;SDS011;54760;47.490;19.030;2024-02-23T03:10:06;5.25;;;2.70;;
67979;SDS011;54760;47.490;19.030;2024-02-23T03:12:32;5.25;;;2.50;;
67979;SDS011;54760;47.490;19.030;2024-02-23T03:14:58;3.53;;;2.37;;
67979;SDS011;54760;47.490;19.030;2024-02-23T03:17:23;4.12;;;2.72;;
67979;SDS011;54760;47.490;19.030;2024-02-23T03:19:49;4.70;;;2.62;;
67979;SDS011;54760;47.490;19.030;2024-02-23T03:22:15;4.72;;;2.90;;
67979;SDS011;54760;47.490;19.030;2024-02-23T03:24:41;4.60;;;3.30;;
67979;SDS011;54760;47.490;19.030;2024-02-23T03:27:06;6.80;;;3.50;;
67979;SDS011;54760;47.490;19.030;2024-02-23T03:29:32;4.62;;;2.97;;
67979;SDS011;54760;47.490;19.030;2024-02-23T03:31:57;5.47;;;3.03;;
67979;SDS011;54760;47.490;19.030;2024-02-23T03:34:24;5.28;;;2.92;;
67979;SDS011;54760;47.490;19.030;2024-02-23T03:36:49;5.10;;;2.78;;
67979;SDS011;54760;47.490;19.030;2024-02-23T03:39:15;3.95;;;2.90;;
67979;SDS011;54760;47.490;19.030;2024-02-23T03:41:40;5.07;;;2.62;;
67979;SDS011;54760;47.490;19.030;2024-02-23T03:44:05;3.60;;;2.78;;
67979;SDS011;54760;47.490;19.030;2024-02-23T03:46:31;5.07;;;2.92;;
67979;SDS011;54760;47.490;19.030;2024-02-23T03:48:56;5.93;;;2.65;;
67979;SDS011;54760;47.490;19.030;2024-02-23T03:51:22;3.87;;;2.83;;
67979;SDS011;54760;47.490;19.030;2024-02-23T03:53:48;3.22;;;2.62;;
67979;SDS011;54760;47.490;19.030;2024-02-23T03:56:13;3.85;;;2.78;;
67979;SDS011;54760;47.490;19.030;2024-02-23T03:58:40;5.72;;;2.90;;
67979;SDS011;54760;47.490;19.030;2024-02-23T04:01:06;5.65;;;3.20;;
67979;SDS011;54760;47.490;19.030;2024-02-23T04:03:31;4.95;;;2.87;;
67979;SDS011;54760;47.490;19.030;2024-02-23T04:05:56;4.72;;;3.05;;
67979;SDS011;54760;47.490;19.030;2024-02-23T04:08:22;3.95;;;2.72;;
67979;SDS011;54760;47.490;19.030;2024-02-23T04:10:47;5.30;;;2.62;;
67979;SDS011;54760;47.490;19.030;2024-02-23T04:13:13;4.70;;;2.87;;
67979;SDS011;54760;47.490;19.030;2024-02-23T04:15:42;3.42;;;2.72;;
67979;SDS011;54760;47.490;19.030;2024-02-23T04:18:08;4.03;;;2.80;;
67979;SDS011;54760;47.490;19.030;2024-02-23T04:20:34;3.67;;;2.70;;
67979;SDS011;54760;47.490;19.030;2024-02-23T04:22:59;7.78;;;2.80;;
67979;SDS011;54760;47.490;19.030;2024-02-23T04:25:24;4.47;;;2.45;;
67979;SDS011;54760;47.490;19.030;2024-02-23T04:27:50;3.42;;;2.62;;
67979;SDS011;54760;47.490;19.030;2024-02-23T04:30:16;3.33;;;2.35;;
67979;SDS011;54760;47.490;19.030;2024-02-23T04:32:41;4.15;;;2.50;;
67979;SDS011;54760;47.490;19.030;2024-02-23T04:35:07;4.85;;;2.67;;
67979;SDS011;54760;47.490;19.030;2024-02-23T04:37:33;3.05;;;2.60;;
67979;SDS011;54760;47.490;19.030;2024-02-23T04:39:58;5.62;;;2.83;;
67979;SDS011;54760;47.490;19.030;2024-02-23T04:42:24;6.07;;;3.10;;
67979;SDS011;54760;47.490;19.030;2024-02-23T04:44:49;3.70;;;2.65;;
67979;SDS011;54760;47.490;19.030;2024-02-23T04:47:14;3.60;;;2.87;;
67979;SDS011;54760;47.490;19.030;2024-02-23T04:49:40;6.35;;;2.50;;
67979;SDS011;54760;47.490;19.030;2024-02-23T04:52:06;4.07;;;2.78;;
67979;SDS011;54760;47.490;19.030;2024-02-23T04:54:33;4.10;;;2.70;;
67979;SDS011;54760;47.490;19.030;2024-02-23T04:56:59;3.62;;;2.58;;
67979;SDS011;54760;47.490;19.030;2024-02-23T04:59:25;4.40;;;2.60;;
67979;SDS011;54760;47.490;19.030;2024-02-23T05:01:50;3.85;;;2.53;;
67979;SDS011;54760;47.490;19.030;2024-02-23T05:04:16;3.62;;;2.35;;
67979;SDS011;54760;47.490;19.030;2024-02-23T05:06:41;2.92;;;2.10;;
67979;SDS011;54760;47.490;19.030;2024-02-23T05:09:08;2.85;;;2.12;;
67979;SDS011;54760;47.490;19.030;2024-02-23T05:11:34;3.28;;;2.50;;
67979;SDS011;54760;47.490;19.030;2024-02-23T05:13:59;3.33;;;2.28;;
67979;SDS011;54760;47.490;19.030;2024-02-23T05:16:25;3.95;;;2.00;;
67979;SDS011;54760;47.490;19.030;2024-02-23T05:18:50;3.80;;;2.10;;
67979;SDS011;54760;47.490;19.030;2024-02-23T05:21:16;4.07;;;2.20;;
67979;SDS011;54760;47.490;19.030;2024-02-23T05:23:41;3.30;;;2.22;;
67979;SDS011;54760;47.490;19.030;2024-02-23T05:26:07;2.75;;;1.95;;
67979;SDS011;54760;47.490;19.030;2024-02-23T05:28:32;3.87;;;2.00;;
67979;SDS011;54760;47.490;19.030;2024-02-23T05:30:58;3.20;;;1.90;;
67979;SDS011;54760;47.490;19.030;2024-02-23T05:33:23;4.18;;;2.03;;
67979;SDS011;54760;47.490;19.030;2024-02-23T05:35:49;3.08;;;1.90;;
67979;SDS011;54760;47.490;19.030;2024-02-23T05:38:15;2.55;;;1.70;;
67979;SDS011;54760;47.490;19.030;2024-02-23T05:40:40;3.97;;;2.33;;
67979;SDS011;54760;47.490;19.030;2024-02-23T05:43:05;4.07;;;1.87;;
67979;SDS011;54760;47.490;19.030;2024-02-23T05:45:31;3.60;;;2.80;;
67979;SDS011;54760;47.490;19.030;2024-02-23T05:47:56;2.78;;;2.00;;
67979;SDS011;54760;47.490;19.030;2024-02-23T05:50:22;2.47;;;1.90;;
67979;SDS011;54760;47.490;19.030;2024-02-23T05:52:47;6.60;;;2.40;;
67979;SDS011;54760;47.490;19.030;2024-02-23T05:55:13;4.05;;;2.15;;
67979;SDS011;54760;47.490;19.030;2024-02-23T05:57:38;4.30;;;1.98;;
67979;SDS011;54760;47.490;19.030;2024-02-23T06:00:04;7.22;;;2.20;;
67979;SDS011;54760;47.490;19.030;2024-02-23T06:02:30;5.97;;;2.25;;
67979;SDS011;54760;47.490;19.030;2024-02-23T06:04:55;5.37;;;2.45;;
67979;SDS011;54760;47.490;19.030;2024-02-23T06:07:20;3.83;;;2.50;;
67979;SDS011;54760;47.490;19.030;2024-02-23T06:09:52;6.32;;;2.45;;
67979;SDS011;54760;47.490;19.030;2024-02-23T06:12:17;3.83;;;2.35;;
67979;SDS011;54760;47.490;19.030;2024-02-23T06:14:43;3.83;;;2.30;;
67979;SDS011;54760;47.490;19.030;2024-02-23T06:17:08;4.95;;;2.20;;
67979;SDS011;54760;47.490;19.030;2024-02-23T06:19:33;5.95;;;2.58;;
67979;SDS011;54760;47.490;19.030;2024-02-23T06:21:59;3.97;;;2.20;;
67979;SDS011;54760;47.490;19.030;2024-02-23T06:24:24;3.58;;;2.05;;
67979;SDS011;54760;47.490;19.030;2024-02-23T06:26:49;6.20;;;2.50;;
67979;SDS011;54760;47.490;19.030;2024-02-23T06:29:16;6.87;;;2.33;;
67979;SDS011;54760;47.490;19.030;2024-02-23T06:31:41;3.35;;;2.50;;
67979;SDS011;54760;47.490;19.030;2024-02-23T06:34:07;3.80;;;2.42;;
67979;SDS011;54760;47.490;19.030;2024-02-23T06:36:33;4.40;;;2.65;;
67979;SDS011;54760;47.490;19.030;2024-02-23T06:38:58;3.83;;;2.85;;
67979;SDS011;54760;47.490;19.030;2024-02-23T06:41:24;5.72;;;2.97;;
67979;SDS011;54760;47.490;19.030;2024-02-23T06:43:49;5.80;;;3.40;;
67979;SDS011;54760;47.490;19.030;2024-02-23T06:46:18;4.53;;;3.08;;
67979;SDS011;54760;47.490;19.030;2024-02-23T06:48:45;4.20;;;3.40;;
67979;SDS011;54760;47.490;19.030;2024-02-23T06:51:10;4.68;;;3.10;;
67979;SDS011;54760;47.490;19.030;2024-02-23T06:53:36;6.78;;;2.97;;
67979;SDS011;54760;47.490;19.030;2024-02-23T06:56:03;4.43;;;2.90;;
67979;SDS011;54760;47.490;19.030;2024-02-23T06:58:28;6.85;;;2.95;;
67979;SDS011;54760;47.490;19.030;2024-02-23T07:00:54;5.45;;;3.17;;
67979;SDS011;54760;47.490;19.030;2024-02-23T07:03:19;5.00;;;2.75;;
67979;SDS011;54760;47.490;19.030;2024-02-23T07:05:45;5.37;;;3.03;;
67979;SDS011;54760;47.490;19.030;2024-02-23T07:08:11;4.10;;;2.95;;
67979;SDS011;54760;47.490;19.030;2024-02-23T07:10:36;6.50;;;3.37;;
67979;SDS011;54760;47.490;19.030;2024-02-23T07:13:02;5.55;;;3.53;;
67979;SDS011;54760;47.490;19.030;2024-02-23T07:15:27;5.82;;;3.53;;
67979;SDS011;54760;47.490;19.030;2024-02-23T07:17:53;5.70;;;3.05;;
67979;SDS011;54760;47.490;19.030;2024-02-23T07:20:18;5.05;;;3.33;;
67979;SDS011;54760;47.490;19.030;2024-02-23T07:22:44;6.28;;;3.60;;
67979;SDS011;54760;47.490;19.030;2024-02-23T07:25:11;7.15;;;4.10;;
67979;SDS011;54760;47.490;19.030;2024-02-23T07:27:36;8.23;;;3.90;;
67979;SDS011;54760;47.490;19.030;2024-02-23T07:30:02;7.68;;;3.53;;
67979;SDS011;54760;47.490;19.030;2024-02-23T07:32:28;5.72;;;3.42;;
67979;SDS011;54760;47.490;19.030;2024-02-23T07:34:54;4.87;;;3.37;;
67979;SDS011;54760;47.490;19.030;2024-02-23T07:37:20;7.28;;;4.03;;
67979;SDS011;54760;47.490;19.030;2024-02-23T07:39:45;8.15;;;3.67;;
67979;SDS011;54760;47.490;19.030;2024-02-23T07:42:12;4.82;;;3.40;;
67979;SDS011;54760;47.490;19.030;2024-02-23T07:44:39;6.10;;;3.55;;
67979;SDS011;54760;47.490;19.030;2024-02-23T07:47:05;5.18;;;3.72;;
67979;SDS011;54760;47.490;19.030;2024-02-23T07:49:30;5.82;;;3.53;;
67979;SDS011;54760;47.490;19.030;2024-02-23T07:51:56;6.40;;;3.53;;
67979;SDS011;54760;47.490;19.030;2024-02-23T07:54:21;5.03;;;3.67;;
67979;SDS011;54760;47.490;19.030;2024-02-23T07:56:47;6.35;;;3.90;;
67979;SDS011;54760;47.490;19.030;2024-02-23T07:59:12;5.70;;;3.50;;
67979;SDS011;54760;47.490;19.030;2024-02-23T08:01:38;7.65;;;3.87;;
67979;SDS011;54760;47.490;19.030;2024-02-23T08:04:05;6.40;;;3.90;;
67979;SDS011;54760;47.490;19.030;2024-02-23T08:06:31;7.55;;;3.97;;
67979;SDS011;54760;47.490;19.030;2024-02-23T08:08:56;7.35;;;4.20;;
67979;SDS011;54760;47.490;19.030;2024-02-23T08:11:21;5.62;;;3.78;;
67979;SDS011;54760;47.490;19.030;2024-02-23T08:13:47;6.35;;;4.25;;
67979;SDS011;54760;47.490;19.030;2024-02-23T08:16:12;6.05;;;4.28;;
67979;SDS011;54760;47.490;19.030;2024-02-23T08:18:38;7.20;;;4.20;;
67979;SDS011;54760;47.490;19.030;2024-02-23T08:21:03;7.00;;;4.22;;
67979;SDS011;54760;47.490;19.030;2024-02-23T08:23:30;9.27;;;4.07;;
67979;SDS011;54760;47.490;19.030;2024-02-23T08:25:57;6.47;;;4.25;;
67979;SDS011;54760;47.490;19.030;2024-02-23T08:28:23;4.82;;;3.80;;
67979;SDS011;54760;47.490;19.030;2024-02-23T08:30:49;5.85;;;4.28;;
67979;SDS011;54760;47.490;19.030;2024-02-23T08:33:14;6.80;;;4.30;;
67979;SDS011;54760;47.490;19.030;2024-02-23T08:35:40;8.27;;;4.47;;
67979;SDS011;54760;47.490;19.030;2024-02-23T08:38:05;10.80;;;4.68;;
67979;SDS011;54760;47.490;19.030;2024-02-23T08:40:30;9.30;;;5.07;;
67979;SDS011;54760;47.490;19.030;2024-02-23T08:42:56;6.75;;;4.65;;
67979;SDS011;54760;47.490;19.030;2024-02-23T08:45:21;6.87;;;4.78;;
67979;SDS011;54760;47.490;19.030;2024-02-23T08:47:47;6.32;;;4.43;;
67979;SDS011;54760;47.490;19.030;2024-02-23T08:50:12;7.50;;;4.60;;
67979;SDS011;54760;47.490;19.030;2024-02-23T08:52:38;7.30;;;4.65;;
67979;SDS011;54760;47.490;19.030;2024-02-23T08:55:03;6.95;;;4.28;;
67979;SDS011;54760;47.490;19.030;2024-02-23T08:57:29;9.05;;;4.53;;
67979;SDS011;54760;47.490;19.030;2024-02-23T08:59:54;10.35;;;4.78;;
67979;SDS011;54760;47.490;19.030;2024-02-23T09:02:22;6.60;;;4.57;;
67979;SDS011;54760;47.490;19.030;2024-02-23T09:04:48;6.90;;;4.43;;
67979;SDS011;54760;47.490;19.030;2024-02-23T09:07:13;6.85;;;4.43;;
67979;SDS011;54760;47.490;19.030;2024-02-23T09:09:39;6.72;;;3.75;;
67979;SDS011;54760;47.490;19.030;2024-02-23T09:12:04;8.00;;;4.65;;
67979;SDS011;54760;47.490;19.030;2024-02-23T09:14:32;5.97;;;3.85;;
67979;SDS011;54760;47.490;19.030;2024-02-23T09:16:58;8.38;;;4.40;;
67979;SDS011;54760;47.490;19.030;2024-02-23T09:19:23;7.43;;;4.10;;
67979;SDS011;54760;47.490;19.030;2024-02-23T09:21:49;6.53;;;3.78;;
67979;SDS011;54760;47.490;19.030;2024-02-23T09:24:14;4.60;;;3.78;;
67979;SDS011;54760;47.490;19.030;2024-02-23T09:26:40;10.15;;;4.20;;
67979;SDS011;54760;47.490;19.030;2024-02-23T09:29:05;8.38;;;4.15;;
67979;SDS011;54760;47.490;19.030;2024-02-23T09:31:31;4.95;;;4.00;;
67979;SDS011;54760;47.490;19.030;2024-02-23T09:33:57;7.75;;;4.50;;
67979;SDS011;54760;47.490;19.030;2024-02-23T09:36:24;5.18;;;3.92;;
67979;SDS011;54760;47.490;19.030;2024-02-23T09:38:49;6.03;;;4.05;;
67979;SDS011;54760;47.490;19.030;2024-02-23T09:41:22;8.63;;;4.35;;
67979;SDS011;54760;47.490;19.030;2024-02-23T09:43:48;6.47;;;3.97;;
67979;SDS011;54760;47.490;19.030;2024-02-23T09:46:17;5.68;;;4.03;;
67979;SDS011;54760;47.490;19.030;2024-02-23T09:48:43;8.93;;;4.22;;
67979;SDS011;54760;47.490;19.030;2024-02-23T09:51:09;6.82;;;4.20;;
67979;SDS011;54760;47.490;19.030;2024-02-23T09:53:37;7.57;;;3.80;;
67979;SDS011;54760;47.490;19.030;2024-02-23T09:56:03;6.30;;;3.70;;
67979;SDS011;54760;47.490;19.030;2024-02-23T09:58:33;7.07;;;4.22;;
67979;SDS011;54760;47.490;19.030;2024-02-23T10:01:01;4.87;;;3.70;;
67979;SDS011;54760;47.490;19.030;2024-02-23T10:03:28;6.57;;;4.07;;
67979;SDS011;54760;47.490;19.030;2024-02-23T10:05:57;8.65;;;4.75;;
67979;SDS011;54760;47.490;19.030;2024-02-23T10:08:23;9.52;;;4.80;;
67979;SDS011;54760;47.490;19.030;2024-02-23T10:10:49;5.75;;;3.62;;
67979;SDS011;54760;47.490;19.030;2024-02-23T10:13:33;7.72;;;4.57;;
67979;SDS011;54760;47.490;19.030;2024-02-23T10:15:59;8.50;;;4.78;;
67979;SDS011;54760;47.490;19.030;2024-02-23T10:18:25;9.23;;;4.07;;
67979;SDS011;54760;47.490;19.030;2024-02-23T10:20:50;8.88;;;4.60;;
67979;SDS011;54760;47.490;19.030;2024-02-23T10:23:17;8.43;;;4.03;;
67979;SDS011;54760;47.490;19.030;2024-02-23T10:25:45;8.18;;;4.15;;
67979;SDS011;54760;47.490;19.030;2024-02-23T10:28:10;6.37;;;4.12;;
67979;SDS011;54760;47.490;19.030;2024-02-23T10:30:36;6.97;;;3.85;;
67979;SDS011;54760;47.490;19.030;2024-02-23T10:33:05;7.12;;;3.25;;
67979;SDS011;54760;47.490;19.030;2024-02-23T10:35:32;5.85;;;3.75;;
67979;SDS011;54760;47.490;19.030;2024-02-23T10:38:00;8.98;;;3.90;;
67979;SDS011;54760;47.490;19.030;2024-02-23T10:40:27;6.90;;;3.80;;
67979;SDS011;54760;47.490;19.030;2024-02-23T10:42:56;5.85;;;3.75;;
67979;SDS011;54760;47.490;19.030;2024-02-23T10:45:27;7.50;;;4.10;;
67979;SDS011;54760;47.490;19.030;2024-02-23T10:47:53;9.38;;;4.85;;
67979;SDS011;54760;47.490;19.030;2024-02-23T10:50:20;10.05;;;4.32;;
67979;SDS011;54760;47.490;19.030;2024-02-23T10:52:47;6.28;;;3.92;;
67979;SDS011;54760;47.490;19.030;2024-02-23T10:55:14;8.30;;;4.40;;
67979;SDS011;54760;47.490;19.030;2024-02-23T10:57:39;9.23;;;3.92;;
67979;SDS011;54760;47.490;19.030;2024-02-23T11:00:05;7.47;;;4.10;;
67979;SDS011;54760;47.490;19.030;2024-02-23T11:02:45;9.48;;;4.32;;
67979;SDS011;54760;47.490;19.030;2024-02-23T11:05:14;7.87;;;4.00;;
67979;SDS011;54760;47.490;19.030;2024-02-23T11:07:41;8.13;;;4.65;;
67979;SDS011;54760;47.490;19.030;2024-02-23T11:10:07;6.37;;;4.87;;
67979;SDS011;54760;47.490;19.030;2024-02-23T11:12:34;6.40;;;4.12;;
67979;SDS011;54760;47.490;19.030;2024-02-23T11:15:00;7.90;;;4.45;;
67979;SDS011;54760;47.490;19.030;2024-02-23T11:17:27;7.93;;;4.70;;
67979;SDS011;54760;47.490;19.030;2024-02-23T11:19:55;5.07;;;3.90;;
67979;SDS011;54760;47.490;19.030;2024-02-23T11:22:27;7.32;;;3.90;;
67979;SDS011;54760;47.490;19.030;2024-02-23T11:25:05;5.25;;;4.05;;
67979;SDS011;54760;47.490;19.030;2024-02-23T11:27:38;7.20;;;4.30;;
67979;SDS011;54760;47.490;19.030;2024-02-23T11:30:08;5.55;;;4.07;;
67979;SDS011;54760;47.490;19.030;2024-02-23T11:35:06;8.13;;;3.97;;
67979;SDS011;54760;47.490;19.030;2024-02-23T11:37:43;6.47;;;4.05;;
67979;SDS011;54760;47.490;19.030;2024-02-23T11:40:17;8.15;;;4.70;;
67979;SDS011;54760;47.490;19.030;2024-02-23T11:42:42;7.55;;;4.18;;
67979;SDS011;54760;47.490;19.030;2024-02-23T11:45:11;5.12;;;3.97;;
67979;SDS011;54760;47.490;19.030;2024-02-23T11:47:37;8.55;;;4.20;;
67979;SDS011;54760;47.490;19.030;2024-02-23T11:50:03;6.80;;;4.10;;
67979;SDS011;54760;47.490;19.030;2024-02-23T11:52:31;6.72;;;4.18;;
67979;SDS011;54760;47.490;19.030;2024-02-23T11:54:57;5.62;;;4.05;;
67979;SDS011;54760;47.490;19.030;2024-02-23T11:57:24;5.55;;;3.20;;
67979;SDS011;54760;47.490;19.030;2024-02-23T11:59:50;4.87;;;3.40;;
67979;SDS011;54760;47.490;19.030;2024-02-23T12:02:17;5.10;;;2.95;;
67979;SDS011;54760;47.490;19.030;2024-02-23T12:04:42;5.05;;;3.20;;
67979;SDS011;54760;47.490;19.030;2024-02-23T12:07:08;6.30;;;3.30;;
67979;SDS011;54760;47.490;19.030;2024-02-23T12:09:33;7.32;;;3.25;;
67979;SDS011;54760;47.490;19.030;2024-02-23T12:11:59;5.35;;;2.92;;
67979;SDS011;54760;47.490;19.030;2024-02-23T12:14:25;4.40;;;2.95;;
67979;SDS011;54760;47.490;19.030;2024-02-23T12:16:51;5.25;;;2.90;;
67979;SDS011;54760;47.490;19.030;2024-02-23T12:19:16;5.22;;;3.00;;
67979;SDS011;54760;47.490;19.030;2024-02-23T12:21:44;5.50;;;3.25;;
67979;SDS011;54760;47.490;19.030;2024-02-23T12:24:10;5.80;;;2.92;;
67979;SDS011;54760;47.490;19.030;2024-02-23T12:26:37;4.97;;;3.12;;
67979;SDS011;54760;47.490;19.030;2024-02-23T12:29:03;3.50;;;2.75;;
67979;SDS011;54760;47.490;19.030;2024-02-23T12:31:30;5.05;;;3.15;;
67979;SDS011;54760;47.490;19.030;2024-02-23T12:33:57;4.20;;;3.00;;
67979;SDS011;54760;47.490;19.030;2024-02-23T12:36:22;5.30;;;3.30;;
67979;SDS011;54760;47.490;19.030;2024-02-23T12:38:48;4.90;;;3.40;;
67979;SDS011;54760;47.490;19.030;2024-02-23T12:41:15;6.82;;;3.78;;
67979;SDS011;54760;47.490;19.030;2024-02-23T12:43:40;7.45;;;3.50;;
67979;SDS011;54760;47.490;19.030;2024-02-23T12:46:06;6.32;;;3.47;;
67979;SDS011;54760;47.490;19.030;2024-02-23T12:48:33;6.43;;;3.92;;
67979;SDS011;54760;47.490;19.030;2024-02-23T12:50:59;6.15;;;3.60;;
67979;SDS011;54760;47.490;19.030;2024-02-23T12:53:35;4.85;;;3.60;;
67979;SDS011;54760;47.490;19.030;2024-02-23T12:56:11;8.57;;;4.03;;
67979;SDS011;54760;47.490;19.030;2024-02-23T12:58:42;4.68;;;3.60;;
67979;SDS011;54760;47.490;19.030;2024-02-23T13:01:09;7.80;;;3.67;;
67979;SDS011;54760;47.490;19.030;2024-02-23T13:03:35;8.77;;;3.90;;
67979;SDS011;54760;47.490;19.030;2024-02-23T13:06:02;5.68;;;4.18;;
67979;SDS011;54760;47.490;19.030;2024-02-23T13:08:28;8.27;;;4.40;;
67979;SDS011;54760;47.490;19.030;2024-02-23T13:10:54;6.60;;;4.40;;
67979;SDS011;54760;47.490;19.030;2024-02-23T13:13:20;6.10;;;4.47;;
67979;SDS011;54760;47.490;19.030;2024-02-23T13:15:47;7.37;;;4.95;;
67979;SDS011;54760;47.490;19.030;2024-02-23T13:18:14;6.12;;;5.00;;
67979;SDS011;54760;47.490;19.030;2024-02-23T13:20:40;9.10;;;5.07;;
67979;SDS011;54760;47.490;19.030;2024-02-23T13:23:09;8.35;;;5.55;;
67979;SDS011;54760;47.490;19.030;2024-02-23T13:25:36;8.15;;;5.12;;
67979;SDS011;54760;47.490;19.030;2024-02-23T13:28:05;8.60;;;5.53;;
67979;SDS011;54760;47.490;19.030;2024-02-23T13:30:32;8.63;;;5.87;;
67979;SDS011;54760;47.490;19.030;2024-02-23T13:32:58;9.90;;;6.03;;
67979;SDS011;54760;47.490;19.030;2024-02-23T13:35:23;9.63;;;6.05;;
67979;SDS011;54760;47.490;19.030;2024-02-23T13:37:49;10.27;;;6.45;;
67979;SDS011;54760;47.490;19.030;2024-02-23T13:40:15;11.20;;;6.35;;
67979;SDS011;54760;47.490;19.030;2024-02-23T13:42:40;9.85;;;6.07;;
67979;SDS011;54760;47.490;19.030;2024-02-23T13:45:06;10.88;;;6.37;;
67979;SDS011;54760;47.490;19.030;2024-02-23T13:47:33;11.35;;;6.37;;
67979;SDS011;54760;47.490;19.030;2024-02-23T13:49:59;11.98;;;6.78;;
67979;SDS011;54760;47.490;19.030;2024-02-23T13:52:24;10.75;;;7.20;;
67979;SDS011;54760;47.490;19.030;2024-02-23T13:54:50;11.07;;;6.35;;
67979;SDS011;54760;47.490;19.030;2024-02-23T13:57:15;8.50;;;6.43;;
67979;SDS011;54760;47.490;19.030;2024-02-23T13:59:41;14.45;;;7.45;;
67979;SDS011;54760;47.490;19.030;2024-02-23T14:02:06;10.27;;;7.32;;
67979;SDS011;54760;47.490;19.030;2024-02-23T14:04:32;10.90;;;6.75;;
67979;SDS011;54760;47.490;19.030;2024-02-23T14:06:58;11.05;;;6.93;;
67979;SDS011;54760;47.490;19.030;2024-02-23T14:09:23;11.10;;;6.93;;
67979;SDS011;54760;47.490;19.030;2024-02-23T14:11:48;9.85;;;6.78;;
67979;SDS011;54760;47.490;19.030;2024-02-23T14:14:14;14.48;;;7.12;;
67979;SDS011;54760;47.490;19.030;2024-02-23T14:16:40;8.70;;;6.55;;
67979;SDS011;54760;47.490;19.030;2024-02-23T14:19:05;8.85;;;6.35;;
67979;SDS011;54760;47.490;19.030;2024-02-23T14:21:30;9.27;;;6.85;;
67979;SDS011;54760;47.490;19.030;2024-02-23T14:23:56;9.93;;;7.18;;
67979;SDS011;54760;47.490;19.030;2024-02-23T14:26:21;13.60;;;7.70;;
67979;SDS011;54760;47.490;19.030;2024-02-23T14:28:47;9.75;;;7.25;;